createdAt,value
2023-02-11T00:00:09.509Z,17.27
2023-02-11T00:02:37.180Z,15.97
2023-02-11T00:05:08.221Z,15.93
2023-02-11T00:07:36.691Z,17.10
2023-02-11T00:10:07.220Z,16.70
2023-02-11T00:12:35.153Z,18.20
2023-02-11T00:15:02.948Z,17.67
2023-02-11T00:17:33.248Z,17.20
2023-02-11T00:20:00.852Z,16.87
2023-02-11T00:22:29.956Z,17.60
2023-02-11T00:24:57.625Z,16.70
2023-02-11T00:27:25.431Z,17.90
2023-02-11T00:29:53.242Z,17.47
2023-02-11T00:32:27.151Z,17.67
2023-02-11T00:34:56.424Z,16.63
2023-02-11T00:37:23.966Z,17.13
2023-02-11T00:39:51.686Z,17.23
2023-02-11T00:42:19.270Z,16.40
2023-02-11T00:44:46.881Z,16.30
2023-02-11T00:47:18.207Z,17.20
2023-02-11T00:49:46.041Z,16.90
2023-02-11T00:52:15.673Z,18.20
2023-02-11T00:54:43.465Z,17.20
2023-02-11T00:57:11.172Z,17.83
2023-02-11T00:59:38.911Z,18.40
2023-02-11T01:02:06.484Z,18.07
2023-02-11T01:04:35.052Z,17.37
2023-02-11T01:07:05.034Z,17.87
2023-02-11T01:09:33.901Z,18.00
2023-02-11T01:12:01.885Z,18.87
2023-02-11T01:14:29.587Z,18.27
2023-02-11T01:16:57.567Z,16.23
2023-02-11T01:19:25.460Z,17.60
2023-02-11T01:21:52.990Z,18.63
2023-02-11T01:24:20.509Z,17.50
2023-02-11T01:26:49.609Z,17.37
2023-02-11T01:29:17.473Z,16.87
2023-02-11T01:31:45.987Z,16.80
2023-02-11T01:34:13.934Z,16.67
2023-02-11T01:36:42.184Z,18.47
2023-02-11T01:39:10.405Z,17.80
2023-02-11T01:41:38.587Z,18.37
2023-02-11T01:44:31.435Z,17.10
2023-02-11T01:47:00.057Z,16.93
2023-02-11T01:49:29.734Z,16.47
2023-02-11T01:52:02.748Z,15.67
2023-02-11T01:54:51.377Z,17.87
2023-02-11T01:57:23.439Z,17.43
2023-02-11T02:00:05.863Z,16.73
2023-02-11T02:02:49.508Z,19.07
2023-02-11T02:05:25.081Z,16.90
2023-02-11T02:07:59.358Z,17.83
2023-02-11T02:10:29.390Z,16.90
2023-02-11T02:13:01.132Z,16.70
2023-02-11T02:15:33.039Z,17.50
2023-02-11T02:18:09.896Z,17.33
2023-02-11T02:21:11.079Z,17.70
2023-02-11T02:24:04.886Z,17.57
2023-02-11T02:27:04.833Z,16.77
2023-02-11T02:30:12.303Z,16.90
2023-02-11T02:33:20.558Z,15.17
2023-02-11T02:35:58.987Z,15.57
2023-02-11T02:38:32.187Z,18.00
2023-02-11T02:41:05.368Z,18.97
2023-02-11T02:43:39.366Z,17.70
2023-02-11T02:46:15.624Z,17.67
2023-02-11T02:48:48.637Z,17.37
2023-02-11T02:51:36.808Z,17.00
2023-02-11T02:54:31.197Z,16.30
2023-02-11T02:57:04.953Z,16.07
2023-02-11T02:59:46.616Z,17.57
2023-02-11T03:02:24.056Z,16.97
2023-02-11T03:05:00.592Z,15.97
2023-02-11T03:07:38.421Z,17.27
2023-02-11T03:10:13.998Z,18.27
2023-02-11T03:12:45.221Z,18.40
2023-02-11T03:15:16.206Z,17.50
2023-02-11T03:17:48.327Z,18.30
2023-02-11T03:20:22.486Z,17.13
2023-02-11T03:22:54.227Z,17.30
2023-02-11T03:25:28.032Z,17.77
2023-02-11T03:28:05.837Z,17.03
2023-02-11T03:30:39.958Z,18.10
2023-02-11T03:33:15.992Z,17.67
2023-02-11T03:35:52.060Z,19.33
2023-02-11T03:38:30.949Z,18.17
2023-02-11T03:40:59.968Z,19.03
2023-02-11T03:43:32.803Z,18.10
2023-02-11T03:46:03.359Z,17.20
2023-02-11T03:48:35.857Z,16.43
2023-02-11T03:51:08.632Z,16.97
2023-02-11T03:53:39.610Z,16.93
2023-02-11T03:56:11.313Z,15.23
2023-02-11T03:58:38.828Z,16.70
2023-02-11T04:01:09.867Z,16.37
2023-02-11T04:03:38.645Z,16.50
2023-02-11T04:06:08.007Z,17.80
2023-02-11T04:08:35.665Z,16.63
2023-02-11T04:11:03.463Z,16.73
2023-02-11T04:13:31.582Z,14.93
2023-02-11T04:15:59.233Z,15.97
2023-02-11T04:18:27.222Z,14.47
2023-02-11T04:20:55.087Z,15.67
2023-02-11T04:23:24.083Z,15.17
2023-02-11T04:25:52.073Z,16.53
2023-02-11T04:28:19.893Z,16.00
2023-02-11T04:30:51.002Z,16.93
2023-02-11T04:33:26.257Z,16.53
2023-02-11T04:35:55.292Z,15.10
2023-02-11T04:38:28.827Z,15.13
2023-02-11T04:40:56.476Z,15.93
2023-02-11T04:43:24.041Z,16.00
2023-02-11T04:45:54.192Z,15.20
2023-02-11T04:48:22.145Z,15.67
2023-02-11T04:50:49.728Z,15.10
2023-02-11T04:53:17.327Z,15.10
2023-02-11T04:55:46.594Z,14.80
2023-02-11T04:58:15.271Z,17.57
2023-02-11T05:00:42.908Z,16.57
2023-02-11T05:03:12.023Z,15.43
2023-02-11T05:05:40.278Z,15.70
2023-02-11T05:08:08.142Z,14.67
2023-02-11T05:10:35.845Z,16.13
2023-02-11T05:13:05.172Z,15.43
2023-02-11T05:15:32.779Z,15.90
2023-02-11T05:18:00.543Z,16.90
2023-02-11T05:20:28.572Z,15.90
2023-02-11T05:22:58.818Z,14.50
2023-02-11T05:25:27.847Z,14.70
2023-02-11T05:27:55.430Z,15.47
2023-02-11T05:30:34.003Z,15.93
2023-02-11T05:33:03.214Z,15.10
2023-02-11T05:35:38.370Z,14.60
2023-02-11T05:38:06.722Z,14.73
2023-02-11T05:40:34.381Z,14.90
2023-02-11T05:43:02.964Z,13.50
2023-02-11T05:45:32.237Z,14.03
2023-02-11T05:47:59.894Z,14.60
2023-02-11T05:50:27.676Z,14.97
2023-02-11T05:52:55.299Z,13.60
2023-02-11T05:55:23.039Z,15.00
2023-02-11T05:57:50.631Z,15.60
2023-02-11T06:00:19.380Z,13.80
2023-02-11T06:02:49.450Z,14.17
2023-02-11T06:05:17.236Z,13.33
2023-02-11T06:07:44.856Z,15.50
2023-02-11T06:10:15.136Z,15.87
2023-02-11T06:12:42.909Z,15.33
2023-02-11T06:15:10.761Z,14.93
2023-02-11T06:17:38.294Z,14.33
2023-02-11T06:20:10.468Z,14.90
2023-02-11T06:22:38.083Z,14.40
2023-02-11T06:25:08.683Z,14.40
2023-02-11T06:27:36.314Z,14.00
2023-02-11T06:30:05.290Z,14.27
2023-02-11T06:32:43.849Z,14.93
2023-02-11T06:35:14.358Z,19.00
2023-02-11T06:37:42.333Z,19.93
2023-02-11T06:40:11.897Z,16.00
2023-02-11T06:42:39.944Z,14.60
2023-02-11T06:45:09.298Z,14.40
2023-02-11T06:47:37.084Z,14.23
2023-02-11T06:50:05.758Z,15.33
2023-02-11T06:52:38.949Z,16.27
2023-02-11T06:55:07.695Z,15.30
2023-02-11T06:57:35.263Z,14.23
2023-02-11T07:00:02.979Z,14.17
2023-02-11T07:02:31.735Z,13.77
2023-02-11T07:04:59.322Z,13.87
2023-02-11T07:07:31.284Z,13.37
2023-02-11T07:10:03.382Z,14.40
2023-02-11T07:12:31.134Z,14.50
2023-02-11T07:14:58.929Z,13.53
2023-02-11T07:17:27.593Z,13.17
2023-02-11T07:19:55.239Z,12.80
2023-02-11T07:22:23.863Z,13.53
2023-02-11T07:24:54.568Z,14.23
2023-02-11T07:27:26.258Z,13.13
2023-02-11T07:29:54.187Z,15.53
2023-02-11T07:32:21.870Z,12.63
2023-02-11T07:34:49.945Z,13.13
2023-02-11T07:37:17.889Z,13.20
2023-02-11T07:39:45.777Z,13.30
2023-02-11T07:42:13.986Z,12.87
2023-02-11T07:44:42.977Z,13.50
2023-02-11T07:47:10.616Z,14.27
2023-02-11T07:49:38.344Z,13.40
2023-02-11T07:52:06.290Z,13.60
2023-02-11T07:54:36.517Z,13.07
2023-02-11T07:57:04.136Z,13.60
2023-02-11T07:59:31.869Z,12.50
2023-02-11T08:02:11.524Z,12.33
2023-02-11T08:10:02.854Z,13.40
2023-02-11T08:12:31.161Z,13.93
2023-02-11T08:14:58.792Z,12.83
2023-02-11T08:17:28.030Z,13.90
2023-02-11T08:19:55.667Z,13.00
2023-02-11T08:22:23.320Z,12.93
2023-02-11T08:24:52.469Z,13.83
2023-02-11T08:27:20.424Z,13.87
2023-02-11T08:29:48.287Z,13.90
2023-02-11T08:32:15.961Z,13.77
2023-02-11T08:34:44.892Z,14.97
2023-02-11T08:37:12.593Z,13.80
2023-02-11T08:39:40.256Z,12.87
2023-02-11T08:42:07.913Z,13.10
2023-02-11T08:44:35.469Z,14.80
2023-02-11T08:47:03.022Z,12.70
2023-02-11T08:49:32.415Z,13.80
2023-02-11T08:52:04.171Z,13.20
2023-02-11T08:54:32.656Z,14.67
2023-02-11T08:57:04.771Z,13.40
2023-02-11T08:59:32.511Z,13.70
2023-02-11T09:02:00.119Z,13.73
2023-02-11T09:04:28.823Z,14.17
2023-02-11T09:06:56.570Z,13.23
2023-02-11T09:09:28.197Z,14.30
2023-02-11T09:11:58.319Z,12.90
2023-02-11T09:14:26.041Z,13.80
2023-02-11T09:16:54.165Z,14.17
2023-02-11T09:19:23.033Z,13.80
2023-02-11T09:21:50.744Z,14.43
2023-02-11T09:24:18.531Z,13.73
2023-02-11T09:26:50.690Z,13.20
2023-02-11T09:29:18.286Z,14.60
2023-02-11T09:31:46.079Z,14.80
2023-02-11T09:34:15.389Z,14.20
2023-02-11T09:36:43.059Z,14.70
2023-02-11T09:39:13.971Z,14.50
2023-02-11T09:42:26.180Z,14.50
2023-02-11T09:44:55.258Z,13.13
2023-02-11T09:47:31.152Z,14.80
2023-02-11T09:50:04.502Z,14.27
2023-02-11T09:52:38.455Z,14.43
2023-02-11T09:55:18.720Z,14.00
2023-02-11T09:57:48.069Z,14.17
2023-02-11T10:00:25.516Z,15.40
2023-02-11T10:03:17.724Z,14.87
2023-02-11T10:06:03.625Z,16.67
2023-02-11T10:08:44.926Z,14.67
2023-02-11T10:11:31.228Z,14.30
2023-02-11T10:14:20.530Z,14.90
2023-02-11T10:16:58.722Z,14.67
2023-02-11T10:19:38.668Z,14.77
2023-02-11T10:22:14.419Z,14.10
2023-02-11T10:24:44.721Z,14.83
2023-02-11T10:27:19.305Z,14.60
2023-02-11T10:29:55.165Z,13.60
2023-02-11T10:32:32.876Z,15.57
2023-02-11T10:35:04.788Z,15.43
2023-02-11T10:37:32.613Z,15.57
2023-02-11T10:40:01.522Z,15.93
2023-02-11T10:42:30.456Z,16.77
2023-02-11T10:45:04.291Z,15.40
2023-02-11T10:47:38.126Z,14.80
2023-02-11T10:50:19.912Z,16.50
2023-02-11T10:52:47.497Z,15.37
2023-02-11T10:55:18.077Z,15.93
2023-02-11T10:57:53.937Z,15.50
2023-02-11T11:00:37.122Z,14.57
2023-02-11T11:03:07.424Z,14.67
2023-02-11T11:05:38.212Z,14.57
2023-02-11T11:08:08.700Z,14.50
2023-02-11T11:10:47.534Z,14.13
2023-02-11T11:13:30.630Z,14.90
2023-02-11T11:16:20.777Z,15.67
2023-02-11T11:18:50.685Z,15.13
2023-02-11T11:21:22.530Z,15.50
2023-02-11T11:24:02.143Z,15.20
2023-02-11T11:26:41.205Z,14.73
2023-02-11T11:29:15.834Z,15.53
2023-02-11T11:31:52.524Z,14.60
2023-02-11T11:34:24.885Z,14.40
2023-02-11T11:36:52.889Z,15.07
2023-02-11T11:39:27.370Z,14.00
2023-02-11T11:41:58.510Z,15.20
2023-02-11T11:44:34.434Z,14.97
2023-02-11T11:47:30.296Z,13.97
2023-02-11T11:50:15.225Z,14.23
2023-02-11T11:52:52.183Z,15.03
2023-02-11T11:55:23.756Z,15.13
2023-02-11T11:57:51.730Z,15.60
2023-02-11T12:00:23.374Z,14.50
2023-02-11T12:03:32.839Z,15.00
2023-02-11T12:06:34.378Z,15.53
2023-02-11T12:09:30.708Z,14.57
2023-02-11T12:12:20.748Z,16.33
2023-02-11T12:14:59.906Z,14.77
2023-02-11T12:17:43.436Z,14.60
2023-02-11T12:20:33.884Z,15.50
2023-02-11T12:23:17.136Z,15.77
2023-02-11T12:25:52.268Z,14.60
2023-02-11T12:28:34.699Z,15.20
2023-02-11T12:31:15.190Z,15.40
2023-02-11T12:34:02.573Z,14.70
2023-02-11T12:36:46.767Z,14.33
2023-02-11T12:39:28.083Z,14.20
2023-02-11T12:42:28.656Z,14.60
2023-02-11T12:45:10.253Z,15.17
2023-02-11T12:47:49.710Z,14.87
2023-02-11T12:50:28.758Z,14.43
2023-02-11T12:53:15.064Z,14.63
2023-02-11T12:55:52.239Z,13.63
2023-02-11T12:58:35.529Z,16.63
2023-02-11T13:01:20.417Z,14.87
2023-02-11T13:03:55.707Z,14.50
2023-02-11T13:06:30.580Z,14.73
2023-02-11T13:09:03.864Z,15.30
2023-02-11T13:11:40.806Z,14.03
2023-02-11T13:14:17.184Z,14.03
2023-02-11T13:16:47.431Z,12.27
2023-02-11T13:19:25.103Z,11.73
2023-02-11T13:22:04.031Z,13.00
2023-02-11T13:24:42.691Z,12.50
2023-02-11T13:27:23.564Z,12.60
2023-02-11T13:30:14.736Z,12.50
2023-02-11T13:33:17.682Z,11.73
2023-02-11T13:35:49.658Z,13.10
2023-02-11T13:38:23.555Z,12.00
2023-02-11T13:41:06.840Z,12.50
2023-02-11T13:43:36.708Z,11.63
2023-02-11T13:46:06.562Z,10.63
2023-02-11T13:48:38.064Z,12.00
2023-02-11T13:51:08.742Z,11.70
2023-02-11T13:53:47.733Z,10.97
2023-02-11T13:56:30.438Z,11.70
2023-02-11T13:59:05.784Z,11.20
2023-02-11T14:02:15.982Z,10.40
2023-02-11T14:05:38.373Z,11.00
2023-02-11T14:08:42.162Z,11.67
2023-02-11T14:11:36.960Z,11.13
2023-02-11T14:14:18.586Z,10.13
2023-02-11T14:17:31.484Z,11.60
2023-02-11T14:20:00.395Z,11.20
2023-02-11T14:22:30.507Z,10.87
2023-02-11T14:25:01.426Z,11.97
2023-02-11T14:27:45.464Z,11.10
2023-02-11T14:30:30.190Z,11.30
2023-02-11T14:33:23.752Z,11.00
2023-02-11T14:36:02.184Z,10.90
2023-02-11T14:38:42.019Z,10.77
2023-02-11T14:41:17.195Z,11.43
2023-02-11T14:43:50.954Z,11.60
2023-02-11T14:46:21.888Z,12.47
2023-02-11T14:48:52.414Z,11.07
2023-02-11T14:51:23.208Z,11.20
2023-02-11T14:53:53.922Z,11.47
2023-02-11T14:56:24.639Z,10.60
2023-02-11T14:58:52.710Z,10.80
2023-02-11T15:01:28.983Z,12.27
2023-02-11T15:03:59.034Z,10.63
2023-02-11T15:06:29.866Z,11.70
2023-02-11T15:09:04.200Z,11.17
2023-02-11T15:11:42.145Z,10.40
2023-02-11T15:14:15.595Z,11.50
2023-02-11T15:16:54.028Z,10.40
2023-02-11T15:22:08.298Z,11.67
2023-02-11T15:24:36.429Z,11.37
2023-02-11T15:27:23.513Z,10.43
2023-02-11T15:30:03.415Z,10.97
2023-02-11T15:32:31.501Z,11.27
2023-02-11T15:35:05.279Z,10.00
2023-02-11T15:37:35.424Z,9.83
2023-02-11T15:40:19.055Z,10.43
2023-02-11T15:42:58.530Z,10.37
2023-02-11T15:45:52.743Z,9.37
2023-02-11T15:48:45.012Z,9.37
2023-02-11T15:51:40.285Z,9.53
2023-02-11T15:54:21.871Z,8.30
2023-02-11T15:56:56.306Z,10.30
2023-02-11T15:59:35.367Z,11.03
2023-02-11T16:02:12.392Z,10.13
2023-02-11T16:04:40.080Z,8.93
2023-02-11T16:07:08.339Z,8.43
2023-02-11T16:09:38.293Z,8.67
2023-02-11T16:12:29.160Z,9.60
2023-02-11T16:14:59.812Z,8.50
2023-02-11T16:20:25.728Z,10.10
2023-02-11T16:22:53.920Z,9.70
2023-02-11T16:25:28.111Z,10.47
2023-02-11T16:27:56.706Z,10.20
2023-02-11T16:30:31.807Z,10.23
2023-02-11T16:33:04.059Z,11.10
2023-02-11T16:35:39.771Z,10.57
2023-02-11T16:38:20.506Z,11.07
2023-02-11T16:40:51.350Z,10.17
2023-02-11T16:43:23.371Z,9.60
2023-02-11T16:45:52.509Z,9.73
2023-02-11T16:48:24.034Z,9.43
2023-02-11T16:50:53.642Z,10.60
2023-02-11T16:53:24.684Z,9.80
2023-02-11T16:55:54.953Z,9.20
2023-02-11T16:58:25.546Z,9.90
2023-02-11T17:01:02.537Z,10.23
2023-02-11T17:03:43.550Z,10.30
2023-02-11T17:06:13.939Z,9.50
2023-02-11T17:08:43.008Z,9.00
2023-02-11T17:11:16.714Z,11.37
2023-02-11T17:13:44.911Z,10.73
2023-02-11T17:16:24.953Z,9.70
2023-02-11T17:18:53.419Z,10.43
2023-02-11T17:21:27.640Z,12.03
2023-02-11T17:23:59.545Z,11.83
2023-02-11T17:26:34.844Z,11.90
2023-02-11T17:29:08.190Z,11.47
2023-02-11T17:31:41.385Z,12.80
2023-02-11T17:34:09.786Z,12.40
2023-02-11T17:36:37.379Z,11.60
2023-02-11T17:39:08.266Z,12.63
2023-02-11T17:41:38.794Z,11.73
2023-02-11T17:44:09.013Z,12.40
2023-02-11T17:46:36.949Z,13.43
2023-02-11T17:49:17.209Z,13.60
2023-02-11T17:51:47.209Z,11.80
2023-02-11T17:54:23.761Z,11.20
2023-02-11T17:56:56.343Z,11.73
2023-02-11T17:59:25.968Z,12.57
2023-02-11T18:01:53.942Z,12.33
2023-02-11T18:04:23.834Z,12.77
2023-02-11T18:06:54.824Z,12.40
2023-02-11T18:09:23.490Z,11.97
2023-02-11T18:11:56.813Z,13.93
2023-02-11T18:14:25.762Z,13.67
2023-02-11T18:16:54.496Z,13.40
2023-02-11T18:19:24.742Z,13.20
2023-02-11T18:21:52.742Z,13.40
2023-02-11T18:24:33.674Z,13.50
2023-02-11T18:27:03.058Z,13.40
2023-02-11T18:29:33.196Z,12.37
2023-02-11T18:32:10.861Z,13.27
2023-02-11T18:34:40.956Z,13.20
2023-02-11T18:37:09.101Z,14.40
2023-02-11T18:39:42.262Z,13.23
2023-02-11T18:42:16.937Z,13.77
2023-02-11T18:44:46.300Z,14.00
2023-02-11T18:47:16.799Z,13.60
2023-02-11T18:49:46.161Z,13.50
2023-02-11T18:52:23.344Z,14.00
2023-02-11T18:54:54.856Z,12.43
2023-02-11T18:57:24.810Z,12.23
2023-02-11T18:59:52.769Z,12.73
2023-02-11T19:02:24.399Z,11.80
2023-02-11T19:04:53.735Z,12.43
2023-02-11T19:07:25.273Z,12.60
2023-02-11T19:09:55.745Z,13.43
2023-02-11T19:12:25.179Z,12.90
2023-02-11T19:14:53.035Z,12.40
2023-02-11T19:17:20.606Z,11.70
2023-02-11T19:20:05.906Z,11.90
2023-02-11T19:22:39.874Z,12.87
2023-02-11T19:25:09.296Z,12.43
2023-02-11T19:27:47.748Z,12.37
2023-02-11T19:30:18.756Z,13.17
2023-02-11T19:32:56.794Z,12.70
2023-02-11T19:35:33.248Z,12.63
2023-02-11T19:38:03.450Z,14.50
2023-02-11T19:40:36.569Z,14.13
2023-02-11T19:43:05.855Z,16.43
2023-02-11T19:45:33.827Z,12.83
2023-02-11T19:48:04.348Z,12.70
2023-02-11T19:50:33.425Z,13.50
2023-02-11T19:53:05.699Z,12.80
2023-02-11T19:55:38.434Z,13.13
2023-02-11T19:58:07.546Z,12.30
2023-02-11T20:00:35.088Z,12.97
2023-02-11T20:03:03.340Z,11.93
2023-02-11T20:05:31.455Z,11.57
2023-02-11T20:08:01.433Z,11.37
2023-02-11T20:10:29.316Z,11.83
2023-02-11T20:12:56.867Z,12.80
2023-02-11T20:15:32.031Z,12.37
2023-02-11T20:18:09.291Z,12.00
2023-02-11T20:20:39.484Z,12.70
2023-02-11T20:23:07.945Z,13.83
2023-02-11T20:25:47.031Z,14.30
2023-02-11T20:28:18.320Z,13.30
2023-02-11T20:30:56.776Z,13.43
2023-02-11T20:33:26.340Z,12.60
2023-02-11T20:36:14.424Z,13.20
2023-02-11T20:38:47.946Z,12.53
2023-02-11T20:41:20.871Z,12.60
2023-02-11T20:44:00.636Z,11.60
2023-02-11T20:46:35.494Z,13.20
2023-02-11T20:49:05.080Z,11.67
2023-02-11T20:51:36.870Z,13.13
2023-02-11T20:54:08.029Z,11.33
2023-02-11T20:56:39.612Z,11.83
2023-02-11T20:59:10.277Z,12.47
2023-02-11T21:01:41.988Z,12.17
2023-02-11T21:04:21.635Z,13.60
2023-02-11T21:06:52.290Z,11.40
2023-02-11T21:09:25.787Z,11.33
2023-02-11T21:12:02.409Z,12.00
2023-02-11T21:14:30.558Z,12.30
2023-02-11T21:17:07.420Z,11.20
2023-02-11T21:19:36.019Z,13.60
2023-02-11T21:22:07.952Z,12.03
2023-02-11T21:24:36.844Z,13.30
2023-02-11T21:27:06.032Z,12.30
2023-02-11T21:29:45.752Z,12.73
2023-02-11T21:32:28.370Z,13.60
2023-02-11T21:35:01.855Z,12.23
2023-02-11T21:37:30.329Z,12.20
2023-02-11T21:40:00.807Z,12.00
2023-02-11T21:42:29.583Z,11.63
2023-02-11T21:47:51.024Z,12.00
2023-02-11T21:50:29.167Z,11.90
2023-02-11T21:52:58.599Z,9.90
2023-02-11T21:55:28.256Z,11.03
2023-02-11T21:57:56.379Z,12.03
2023-02-11T22:00:37.298Z,12.20
2023-02-11T22:03:16.521Z,12.47
2023-02-11T22:05:44.615Z,12.17
2023-02-11T22:08:17.459Z,10.83
2023-02-11T22:10:46.161Z,11.53
2023-02-11T22:13:14.457Z,12.67
2023-02-11T22:15:42.427Z,12.30
2023-02-11T22:18:17.978Z,12.33
2023-02-11T22:20:47.440Z,11.80
2023-02-11T22:23:15.573Z,13.23
2023-02-11T22:25:46.724Z,11.90
2023-02-11T22:28:22.812Z,12.87
2023-02-11T22:30:55.383Z,12.30
2023-02-11T22:33:56.549Z,12.40
2023-02-11T22:36:46.619Z,12.70
2023-02-11T22:42:28.093Z,12.17
2023-02-11T22:44:56.043Z,13.53
2023-02-11T22:47:23.576Z,12.47
2023-02-11T22:49:53.970Z,13.10
2023-02-11T22:52:22.607Z,13.40
2023-02-11T22:54:55.559Z,13.17
2023-02-11T22:57:24.555Z,12.27
2023-02-11T22:59:53.078Z,13.77
2023-02-11T23:02:21.222Z,13.90
2023-02-11T23:04:50.011Z,12.40
2023-02-11T23:07:17.698Z,13.60
2023-02-11T23:09:45.404Z,12.50
2023-02-11T23:12:12.894Z,13.83
2023-02-11T23:14:42.608Z,12.80
2023-02-11T23:17:10.239Z,12.60
2023-02-11T23:19:38.073Z,13.40
2023-02-11T23:22:05.568Z,13.50
2023-02-11T23:24:33.147Z,12.90
2023-02-11T23:27:00.820Z,13.07
2023-02-11T23:29:28.460Z,11.87
2023-02-11T23:31:59.007Z,13.00
2023-02-11T23:34:26.783Z,14.00
2023-02-11T23:36:54.747Z,13.40
2023-02-11T23:39:22.398Z,12.20
2023-02-11T23:41:52.692Z,13.27
2023-02-11T23:44:20.301Z,13.00
2023-02-11T23:46:48.648Z,12.83
2023-02-11T23:49:17.499Z,13.00
2023-02-11T23:51:45.136Z,13.90
2023-02-11T23:54:15.541Z,12.13
2023-02-11T23:56:43.594Z,13.80
2023-02-11T23:59:11.558Z,12.47
